Time;durP1;ratioP1;P1;durP2;ratioP2;P2;SDS_P1;SDS_P2;PMS_P1;PMS_P2;Temp;Humidity;BMP_temperature;BMP_pressure;BME280_temperature;BME280_humidity;BME280_pressure;Samples;Min_cycle;Max_cycle;Signal;HPM_P1;HPM_P2
2022/01/22 00:01:52;;;;;;;23.75;16.98;;;-3.00;94.80;;;;;;5003773;28;20037;-85
2022/01/22 00:04:18;;;;;;;32.97;17.98;;;-3.00;94.80;;;;;;5007854;28;20029;-82
2022/01/22 00:06:43;;;;;;;29.38;17.73;;;-3.00;94.80;;;;;;5015328;28;20052;-84
2022/01/22 00:09:10;;;;;;;29.92;17.13;;;-3.00;94.70;;;;;;4996901;28;20029;-83
2022/01/22 00:11:40;;;;;;;27.80;16.65;;;-3.00;94.80;;;;;;4997090;28;20040;-81
2022/01/22 00:14:25;;;;;;;30.25;16.17;;;-3.00;94.90;;;;;;4997315;28;20037;-82
2022/01/22 00:16:56;;;;;;;30.00;16.50;;;-3.00;95.00;;;;;;4996988;28;20463;-82
2022/01/22 00:19:23;;;;;;;31.55;18.02;;;-3.00;95.10;;;;;;5001792;28;20026;-80
2022/01/22 00:21:50;;;;;;;28.02;16.30;;;-3.00;95.20;;;;;;4983899;28;20018;-82
2022/01/22 00:24:16;;;;;;;36.75;17.75;;;-3.00;95.10;;;;;;4998272;28;20118;-83
2022/01/22 00:26:43;;;;;;;28.88;18.17;;;-3.00;95.00;;;;;;4998120;28;20383;-80
2022/01/22 00:29:10;;;;;;;30.70;18.67;;;-2.90;95.10;;;;;;4998936;28;20391;-81
2022/01/22 00:31:38;;;;;;;28.90;17.42;;;-2.90;95.20;;;;;;4997554;28;20085;-82
2022/01/22 00:34:03;;;;;;;29.95;16.30;;;-2.90;95.00;;;;;;4998065;28;20045;-81
2022/01/22 00:36:30;;;;;;;31.27;18.30;;;-2.90;95.10;;;;;;4998190;28;20022;-82
2022/01/22 00:38:57;;;;;;;29.30;16.58;;;-2.80;95.20;;;;;;4982061;28;20093;-81
2022/01/22 00:41:23;;;;;;;24.35;16.95;;;-2.80;95.10;;;;;;4996268;28;20118;-81
2022/01/22 00:43:49;;;;;;;30.77;17.35;;;-2.80;95.00;;;;;;4996346;28;20062;-81
2022/01/22 00:46:15;;;;;;;25.92;17.38;;;-2.80;95.00;;;;;;4996259;28;20096;-81
2022/01/22 00:48:41;;;;;;;25.77;17.35;;;-2.80;94.80;;;;;;4996529;28;20026;-84
2022/01/22 00:51:07;;;;;;;26.27;17.13;;;-2.80;94.80;;;;;;4996150;28;20101;-83
2022/01/22 00:53:32;;;;;;;29.00;15.82;;;-2.80;94.90;;;;;;4996406;28;20153;-82
2022/01/22 00:55:59;;;;;;;26.27;15.40;;;-2.70;94.90;;;;;;4978934;28;20450;-81
2022/01/22 00:58:25;;;;;;;27.00;16.92;;;-2.70;94.80;;;;;;5014200;28;20049;-85
2022/01/22 01:00:53;;;;;;;23.98;15.20;;;-2.70;94.70;;;;;;5001901;28;20026;-88
2022/01/22 01:03:20;;;;;;;30.02;16.20;;;-2.70;94.80;;;;;;5008700;28;20100;-88
2022/01/22 01:05:46;;;;;;;26.23;17.30;;;-2.70;94.70;;;;;;4996818;28;20062;-88
2022/01/22 01:08:12;;;;;;;31.48;18.33;;;-2.70;94.50;;;;;;4982953;28;20067;-84
2022/01/22 01:10:38;;;;;;;26.23;15.98;;;-2.70;94.70;;;;;;4982418;28;20031;-84
2022/01/22 01:13:05;;;;;;;26.77;15.68;;;-2.80;94.00;;;;;;4994894;28;20061;-86
2022/01/22 01:15:42;;;;;;;30.67;17.60;;;-2.80;94.00;;;;;;4945950;29;20058;-82
2022/01/22 01:34:43;;;;;;;29.20;17.08;;;-2.90;94.50;;;;;;4955344;29;20081;-81
2022/01/22 01:37:16;;;;;;;23.77;16.73;;;-3.00;94.30;;;;;;4954792;29;20505;-82
2022/01/22 01:39:45;;;;;;;24.88;15.57;;;-3.00;94.50;;;;;;4954775;29;20027;-82
2022/01/22 01:42:16;;;;;;;24.40;16.10;;;-3.00;94.40;;;;;;4954575;29;20035;-82
2022/01/22 01:44:42;;;;;;;20.27;14.30;;;-3.00;94.30;;;;;;4954361;29;20034;-80
2022/01/22 01:47:12;;;;;;;28.80;17.20;;;-3.00;94.30;;;;;;4984496;28;20034;-80
2022/01/22 01:49:37;;;;;;;23.02;14.95;;;-3.10;94.50;;;;;;4994420;28;20026;-80
2022/01/22 01:52:06;;;;;;;26.27;15.23;;;-3.10;94.50;;;;;;4994059;28;20034;-83
2022/01/22 01:55:00;;;;;;;26.75;17.10;;;-3.10;94.60;;;;;;4991397;28;20475;-82
2022/01/22 01:59:53;;;;;;;25.90;16.27;;;-3.10;94.50;;;;;;5009565;28;20053;-83
2022/01/22 02:02:22;;;;;;;23.95;15.18;;;-3.00;94.40;;;;;;4988461;28;20037;-80
2022/01/22 02:04:48;;;;;;;23.80;14.85;;;-3.10;94.30;;;;;;4979344;28;20504;-81
2022/01/22 02:07:13;;;;;;;25.67;15.43;;;-3.10;94.40;;;;;;4996816;28;20054;-81
2022/01/22 02:09:41;;;;;;;25.10;14.10;;;-3.10;94.50;;;;;;4999522;28;20089;-81
2022/01/22 02:12:17;;;;;;;24.65;14.82;;;-3.10;94.40;;;;;;4996156;28;20405;-80
2022/01/22 02:25:58;;;;;;;20.40;12.48;;;-3.40;94.70;;;;;;4988983;28;20041;-83
2022/01/22 02:28:23;;;;;;;24.33;12.38;;;-3.40;94.90;;;;;;4993697;28;20026;-80
2022/01/22 02:30:55;;;;;;;23.63;13.93;;;-3.40;94.90;;;;;;4974727;28;20019;-81
2022/01/22 02:35:58;;;;;;;24.00;13.48;;;-3.40;95.20;;;;;;4988633;28;20471;-84
2022/01/22 02:41:17;;;;;;;23.63;14.20;;;-3.40;95.50;;;;;;4957728;28;20810;-81
2022/01/22 02:43:43;;;;;;;20.92;14.15;;;-3.40;95.60;;;;;;4977068;28;20022;-80
2022/01/22 02:46:09;;;;;;;17.73;11.65;;;-3.30;95.60;;;;;;4993872;28;20058;-80
2022/01/22 02:48:35;;;;;;;22.10;14.35;;;-3.30;95.50;;;;;;4978800;28;20022;-80
2022/01/22 02:51:01;;;;;;;25.38;13.93;;;-3.30;95.40;;;;;;4995367;28;20022;-80
2022/01/22 02:53:27;;;;;;;19.45;12.88;;;-3.30;95.10;;;;;;4995463;28;20026;-78
2022/01/22 02:55:54;;;;;;;26.65;14.48;;;-3.30;95.10;;;;;;4997253;28;20039;-82
2022/01/22 02:58:19;;;;;;;24.40;13.55;;;-3.30;95.20;;;;;;5012999;28;20018;-82
2022/01/22 03:00:45;;;;;;;21.58;14.88;;;-3.40;95.30;;;;;;5015496;28;20036;-82
2022/01/22 03:03:11;;;;;;;22.52;12.73;;;-3.40;95.20;;;;;;4996981;28;20022;-80
2022/01/22 03:05:37;;;;;;;22.23;14.52;;;-3.40;95.20;;;;;;4998380;28;20486;-80
2022/01/22 03:08:07;;;;;;;24.15;13.82;;;-3.40;95.40;;;;;;4998374;28;20022;-80
2022/01/22 03:10:33;;;;;;;21.38;14.32;;;-3.40;95.30;;;;;;4998291;28;20092;-80
2022/01/22 03:28:34;;;;;;;23.15;12.27;;;-3.30;95.70;;;;;;4974066;28;20043;-82
2022/01/22 03:30:59;;;;;;;26.15;15.43;;;-3.20;95.80;;;;;;4986570;28;20436;-82
2022/01/22 03:33:25;;;;;;;23.50;13.23;;;-3.20;96.10;;;;;;4981993;28;20026;-84
2022/01/22 03:35:55;;;;;;;24.77;14.45;;;-3.20;95.70;;;;;;5005034;28;20038;-83
2022/01/22 03:38:23;;;;;;;28.75;13.77;;;-3.10;95.70;;;;;;5009751;28;20026;-81
2022/01/22 03:40:50;;;;;;;24.27;15.85;;;-3.10;95.60;;;;;;4999414;28;20080;-84
2022/01/22 03:43:17;;;;;;;21.80;12.10;;;-3.10;95.50;;;;;;4992681;28;20026;-85
2022/01/22 03:45:42;;;;;;;24.63;15.32;;;-3.10;95.70;;;;;;4984939;28;20031;-83
2022/01/22 03:48:08;;;;;;;22.63;13.25;;;-3.10;95.80;;;;;;4992470;28;20488;-84
2022/01/22 03:50:34;;;;;;;22.95;13.60;;;-3.00;95.80;;;;;;4982515;28;20026;-83
2022/01/22 03:53:00;;;;;;;27.92;14.68;;;-3.00;95.70;;;;;;4964286;28;20027;-84
2022/01/22 03:58:10;;;;;;;26.08;14.65;;;-2.90;95.70;;;;;;5022970;28;20125;-84
2022/01/22 04:00:36;;;;;;;30.00;18.65;;;-3.00;95.60;;;;;;5025560;28;20466;-83
2022/01/22 04:06:49;;;;;;;24.52;14.23;;;-2.90;95.80;;;;;;5031507;28;20123;-85
2022/01/22 04:08:36;;;;;;;23.50;15.02;;;-2.90;95.90;;;;;;5009808;28;20038;-84
2022/01/22 04:11:08;;;;;;;27.65;18.27;;;-2.90;95.90;;;;;;5018613;28;20057;-82
2022/01/22 04:13:35;;;;;;;20.67;12.93;;;-2.90;95.80;;;;;;5019795;28;20052;-83
2022/01/22 04:16:00;;;;;;;25.15;15.07;;;-2.80;95.80;;;;;;4999171;28;20037;-83
2022/01/22 04:26:53;;;;;;;20.77;12.80;;;-2.80;95.70;;;;;;4982802;28;20042;-83
2022/01/22 04:29:21;;;;;;;24.23;13.57;;;-2.70;95.50;;;;;;4968667;28;20122;-83
2022/01/22 04:31:47;;;;;;;20.73;13.10;;;-2.70;95.30;;;;;;4979536;28;20404;-85
2022/01/22 04:34:13;;;;;;;26.08;13.68;;;-2.70;95.30;;;;;;4996537;28;20031;-84
2022/01/22 04:36:39;;;;;;;23.42;13.65;;;-2.70;95.30;;;;;;4998289;28;20448;-84
2022/01/22 04:39:05;;;;;;;21.95;11.50;;;-2.70;95.20;;;;;;4998882;28;20061;-83
2022/01/22 04:41:30;;;;;;;24.13;12.85;;;-2.70;95.20;;;;;;4998755;28;20141;-84
2022/01/22 04:44:00;;;;;;;23.77;13.75;;;-2.70;95.10;;;;;;5000581;28;20023;-84
2022/01/22 04:52:26;;;;;;;26.33;14.13;;;-2.70;95.10;;;;;;5000232;28;20565;-84
2022/01/22 04:57:46;;;;;;;24.88;12.93;;;-2.70;95.30;;;;;;4997567;28;20116;-84
2022/01/22 05:00:14;;;;;;;16.48;12.48;;;-2.70;95.20;;;;;;4998973;28;20407;-83
2022/01/22 05:02:40;;;;;;;22.50;12.40;;;-2.70;95.20;;;;;;5001969;28;20023;-83
2022/01/22 05:05:08;;;;;;;22.50;14.65;;;-2.70;95.40;;;;;;5001907;28;20066;-84
2022/01/22 05:07:33;;;;;;;22.55;13.18;;;-2.70;95.40;;;;;;4999007;28;20077;-83
2022/01/22 05:10:01;;;;;;;25.17;13.55;;;-2.70;95.40;;;;;;4998160;28;20034;-83
2022/01/22 05:12:27;;;;;;;24.65;15.32;;;-2.70;95.40;;;;;;4999224;28;20018;-84
2022/01/22 05:14:53;;;;;;;19.60;13.05;;;-2.60;95.40;;;;;;4999293;28;20030;-84
2022/01/22 05:17:19;;;;;;;20.85;12.15;;;-2.60;95.40;;;;;;4981543;28;20380;-84
2022/01/22 05:24:52;;;;;;;23.55;14.32;;;-2.50;95.30;;;;;;5003528;28;20038;-83
2022/01/22 05:37:35;;;;;;;23.45;14.32;;;-2.40;95.30;;;;;;5008520;28;20029;-83
2022/01/22 05:40:01;;;;;;;24.80;14.73;;;-2.40;95.30;;;;;;5015366;28;20006;-84
2022/01/22 05:42:27;;;;;;;25.02;14.07;;;-2.40;95.30;;;;;;5017302;28;20054;-82
2022/01/22 05:44:53;;;;;;;33.45;16.27;;;-2.40;95.30;;;;;;4983541;28;20069;-84
2022/01/22 05:47:23;;;;;;;25.27;16.30;;;-2.40;95.20;;;;;;4991263;28;20032;-83
2022/01/22 05:49:49;;;;;;;24.98;14.57;;;-2.30;95.10;;;;;;5007451;28;20401;-83
2022/01/22 05:52:21;;;;;;;23.88;15.77;;;-2.30;95.20;;;;;;4999883;28;20030;-82
2022/01/22 05:55:08;;;;;;;25.75;15.52;;;-2.30;95.20;;;;;;5001711;28;20065;-83
2022/01/22 06:00:18;;;;;;;21.52;14.57;;;-2.20;95.20;;;;;;5017561;28;20088;-84
2022/01/22 06:02:44;;;;;;;30.08;15.70;;;-2.20;95.20;;;;;;5023733;28;20029;-85
2022/01/22 06:05:10;;;;;;;21.63;12.68;;;-2.20;95.30;;;;;;5025490;28;20010;-81
2022/01/22 06:07:35;;;;;;;27.58;16.40;;;-2.20;95.30;;;;;;5038038;28;20029;-83
2022/01/22 06:15:13;;;;;;;31.13;17.25;;;-2.10;95.00;;;;;;5016652;28;20097;-82
2022/01/22 06:17:39;;;;;;;24.95;16.02;;;-2.10;95.00;;;;;;5018645;28;20049;-82
2022/01/22 06:20:06;;;;;;;28.20;16.38;;;-2.10;95.10;;;;;;5015923;28;20030;-82
2022/01/22 06:22:33;;;;;;;26.45;15.80;;;-2.10;95.10;;;;;;5007532;28;20018;-84
2022/01/22 06:24:59;;;;;;;23.40;13.55;;;-2.00;95.30;;;;;;5007813;28;20030;-83
2022/01/22 06:27:24;;;;;;;20.05;14.55;;;-2.00;95.50;;;;;;5006035;28;20048;-82
2022/01/22 06:29:51;;;;;;;26.42;15.93;;;-1.90;95.40;;;;;;4983095;28;20026;-84
2022/01/22 06:32:16;;;;;;;22.67;15.85;;;-2.00;95.30;;;;;;4999523;28;20126;-84
2022/01/22 06:34:42;;;;;;;29.90;16.38;;;-1.90;95.20;;;;;;4997364;28;20035;-84
2022/01/22 06:37:08;;;;;;;29.00;16.33;;;-1.90;95.20;;;;;;4981374;28;20084;-85
2022/01/22 06:39:51;;;;;;;27.10;15.38;;;-1.90;95.20;;;;;;4998262;28;20479;-84
2022/01/22 06:42:17;;;;;;;25.55;15.55;;;-1.90;95.20;;;;;;4998468;28;20030;-83
2022/01/22 06:44:43;;;;;;;29.83;15.50;;;-1.80;95.40;;;;;;4996709;28;20137;-84
2022/01/22 06:47:08;;;;;;;27.30;15.00;;;-1.80;95.20;;;;;;5012491;28;20076;-83
2022/01/22 06:49:34;;;;;;;28.30;17.15;;;-1.80;95.30;;;;;;4995232;28;20026;-81
2022/01/22 06:52:00;;;;;;;26.90;16.40;;;-1.80;95.50;;;;;;4996363;28;20023;-82
2022/01/22 06:54:26;;;;;;;26.83;15.07;;;-1.70;95.50;;;;;;4980176;28;20530;-83
2022/01/22 06:56:51;;;;;;;26.17;17.13;;;-1.70;95.60;;;;;;4997742;28;20046;-83
2022/01/22 06:59:18;;;;;;;29.70;17.20;;;-1.60;95.60;;;;;;4983295;28;20062;-83
2022/01/22 07:01:45;;;;;;;25.45;14.38;;;-1.60;95.40;;;;;;4991133;28;20034;-83
2022/01/22 07:04:12;;;;;;;23.92;15.88;;;-1.60;95.30;;;;;;4994133;28;20484;-86
2022/01/22 07:06:38;;;;;;;32.80;16.05;;;-1.60;95.20;;;;;;4973550;28;20034;-83
2022/01/22 07:09:05;;;;;;;27.90;17.73;;;-1.60;95.20;;;;;;5012729;28;20050;-84
2022/01/22 07:11:37;;;;;;;24.52;17.35;;;-1.60;95.10;;;;;;4981650;28;20030;-83
2022/01/22 07:14:04;;;;;;;30.90;16.42;;;-1.60;95.00;;;;;;4981682;28;20042;-83
2022/01/22 07:16:30;;;;;;;25.17;15.18;;;-1.50;95.10;;;;;;4982233;28;20045;-83
2022/01/22 07:19:01;;;;;;;29.77;18.77;;;-1.50;95.00;;;;;;5014256;28;20022;-83
2022/01/22 07:21:32;;;;;;;35.22;17.65;;;-1.50;95.10;;;;;;4983156;28;20034;-84
2022/01/22 07:26:55;;;;;;;30.00;16.48;;;-1.40;95.00;;;;;;4976002;28;20054;-84
2022/01/22 07:29:22;;;;;;;30.23;17.98;;;-1.40;94.90;;;;;;4980943;28;20059;-81
2022/01/22 07:32:01;;;;;;;25.05;16.88;;;-1.40;94.60;;;;;;4981511;28;20026;-81
2022/01/22 07:34:27;;;;;;;26.83;16.98;;;-1.30;94.50;;;;;;4966173;28;20066;-80
2022/01/22 07:37:02;;;;;;;30.23;19.55;;;-1.30;94.30;;;;;;4965927;28;20023;-81
2022/01/22 07:39:27;;;;;;;31.58;16.67;;;-1.40;94.30;;;;;;4962072;28;20487;-83
2022/01/22 07:41:53;;;;;;;29.15;17.45;;;-1.40;94.50;;;;;;4978001;28;20039;-84
2022/01/22 07:44:19;;;;;;;30.42;18.50;;;-1.30;94.60;;;;;;4961495;28;20427;-86
2022/01/22 07:46:45;;;;;;;35.30;20.73;;;-1.30;94.40;;;;;;4982302;28;20031;-83
2022/01/22 07:49:11;;;;;;;31.70;18.45;;;-1.30;94.40;;;;;;4984176;28;20046;-82
2022/01/22 07:51:37;;;;;;;28.95;18.23;;;-1.30;94.80;;;;;;4987701;28;20031;-83
2022/01/22 07:54:03;;;;;;;29.20;17.92;;;-1.20;94.70;;;;;;4972581;28;20027;-85
2022/01/22 07:56:28;;;;;;;32.40;19.13;;;-1.30;94.50;;;;;;4989585;28;20051;-85
2022/01/22 07:58:56;;;;;;;27.23;17.80;;;-1.20;94.50;;;;;;5024811;28;20021;-83
2022/01/22 08:01:22;;;;;;;36.97;19.33;;;-1.20;94.40;;;;;;5000876;28;20438;-81
2022/01/22 08:03:50;;;;;;;31.20;18.30;;;-1.20;94.40;;;;;;4978952;28;20117;-84
2022/01/22 08:06:16;;;;;;;32.75;20.23;;;-1.20;94.30;;;;;;5002762;28;20033;-84
2022/01/22 08:08:42;;;;;;;28.63;17.67;;;-1.10;94.20;;;;;;5001498;28;20027;-83
2022/01/22 08:11:08;;;;;;;30.25;18.52;;;-1.10;94.10;;;;;;4960741;29;20035;-83
2022/01/22 08:13:33;;;;;;;28.98;17.92;;;-1.10;93.90;;;;;;4955291;29;20063;-84
2022/01/22 08:15:59;;;;;;;32.63;18.60;;;-1.10;93.80;;;;;;4971629;29;20043;-82
2022/01/22 08:18:25;;;;;;;26.85;16.83;;;-1.10;93.70;;;;;;4950554;29;20115;-85
2022/01/22 08:20:51;;;;;;;26.75;18.05;;;-1.20;93.70;;;;;;4958611;29;20031;-84
2022/01/22 08:23:18;;;;;;;31.40;19.83;;;-1.10;93.80;;;;;;4941056;29;20060;-83
2022/01/22 08:25:46;;;;;;;28.03;19.53;;;-1.10;93.80;;;;;;4949134;29;20501;-84
2022/01/22 08:31:02;;;;;;;31.85;19.58;;;-1.10;94.00;;;;;;4957189;29;20046;-84
2022/01/22 08:35:57;;;;;;;27.58;16.50;;;-1.00;94.40;;;;;;4957034;29;20046;-84
2022/01/22 08:38:25;;;;;;;30.17;17.05;;;-0.90;94.60;;;;;;4956546;29;20034;-84
2022/01/22 08:40:52;;;;;;;28.00;17.25;;;-0.90;94.50;;;;;;4957134;29;20050;-85
2022/01/22 08:43:18;;;;;;;26.60;17.17;;;-0.90;94.40;;;;;;4974310;28;20043;-83
2022/01/22 08:45:49;;;;;;;27.85;16.85;;;-0.90;94.40;;;;;;4983691;28;20041;-83
2022/01/22 08:48:15;;;;;;;31.60;18.23;;;-0.80;94.30;;;;;;4980979;28;20030;-85
2022/01/22 08:50:41;;;;;;;28.33;19.38;;;-0.80;94.10;;;;;;4995652;28;20113;-82
2022/01/22 08:53:07;;;;;;;38.55;18.73;;;-0.80;93.80;;;;;;4997494;28;20073;-83
2022/01/22 08:55:32;;;;;;;29.00;18.88;;;-0.80;93.30;;;;;;4996317;28;20085;-82
2022/01/22 08:57:59;;;;;;;30.35;18.13;;;-0.80;93.20;;;;;;5010528;28;20395;-83
2022/01/22 09:00:25;;;;;;;28.27;17.27;;;-0.90;93.40;;;;;;4999787;28;20049;-83
2022/01/22 09:02:51;;;;;;;25.52;17.23;;;-0.80;93.40;;;;;;5016870;28;20026;-82
2022/01/22 09:05:17;;;;;;;34.40;21.23;;;-0.90;93.50;;;;;;5003564;28;20036;-81
2022/01/22 09:07:46;;;;;;;31.95;20.55;;;-0.90;93.60;;;;;;5015397;28;20101;-83
2022/01/22 09:10:13;;;;;;;38.92;22.25;;;-0.90;93.70;;;;;;5009085;28;20006;-83
2022/01/22 09:12:39;;;;;;;39.23;21.07;;;-0.80;93.60;;;;;;5005123;28;20022;-84
2022/01/22 09:15:06;;;;;;;32.50;21.17;;;-0.80;93.30;;;;;;5003784;28;20034;-84
2022/01/22 09:17:32;;;;;;;33.55;21.65;;;-0.80;93.20;;;;;;5007051;28;20054;-84
2022/01/22 09:19:58;;;;;;;32.08;19.40;;;-0.80;93.30;;;;;;5007505;28;20026;-83
2022/01/22 09:22:25;;;;;;;38.45;22.98;;;-0.80;93.20;;;;;;5008244;28;20041;-85
2022/01/22 09:24:52;;;;;;;31.20;20.97;;;-0.80;93.00;;;;;;5014309;28;20078;-85
2022/01/22 09:27:19;;;;;;;38.05;20.33;;;-0.80;93.00;;;;;;5000111;28;20038;-84
2022/01/22 09:29:45;;;;;;;35.92;18.70;;;-0.80;93.20;;;;;;5014863;28;20034;-84
2022/01/22 09:32:11;;;;;;;34.88;19.58;;;-0.80;93.20;;;;;;5014063;28;20137;-83
2022/01/22 09:34:40;;;;;;;31.85;18.98;;;-0.80;93.00;;;;;;4961089;28;20042;-82
2022/01/22 09:37:06;;;;;;;34.53;21.50;;;-0.90;92.80;;;;;;4989467;28;20404;-82
2022/01/22 09:39:32;;;;;;;35.60;19.45;;;-0.90;93.10;;;;;;5004146;28;20027;-83
2022/01/22 09:41:59;;;;;;;35.05;22.02;;;-0.90;93.60;;;;;;5000715;28;20018;-84
2022/01/22 09:44:24;;;;;;;32.88;22.23;;;-0.90;93.60;;;;;;4997857;28;20044;-84
2022/01/22 09:46:50;;;;;;;35.25;20.52;;;-0.90;93.40;;;;;;4996881;28;20149;-84
2022/01/22 09:49:16;;;;;;;31.98;20.35;;;-0.90;93.20;;;;;;4984233;28;20117;-83
2022/01/22 09:51:44;;;;;;;41.35;21.27;;;-0.90;93.30;;;;;;4987042;28;20042;-83
2022/01/22 09:54:12;;;;;;;35.30;21.83;;;-0.90;93.10;;;;;;5006096;28;20025;-83
2022/01/22 09:56:41;;;;;;;30.63;18.88;;;-1.00;93.20;;;;;;5006066;28;20050;-84
2022/01/22 09:59:10;;;;;;;31.92;20.02;;;-0.90;93.20;;;;;;5002792;28;20046;-84
2022/01/22 10:01:37;;;;;;;37.60;21.58;;;-0.90;93.40;;;;;;5011905;28;20383;-85
2022/01/22 10:04:06;;;;;;;36.15;22.00;;;-0.90;93.80;;;;;;5021040;28;20029;-83
2022/01/22 10:06:44;;;;;;;33.47;20.25;;;-0.90;93.40;;;;;;5023497;28;20032;-81
2022/01/22 10:09:24;;;;;;;37.63;22.67;;;-0.90;93.20;;;;;;5007737;28;20023;-84
2022/01/22 10:12:12;;;;;;;38.28;21.63;;;-0.90;92.90;;;;;;5000079;28;20101;-83
2022/01/22 10:15:11;;;;;;;33.70;20.48;;;-0.90;93.00;;;;;;5009227;28;20038;-83
2022/01/22 10:17:50;;;;;;;39.30;22.65;;;-1.00;93.20;;;;;;5016657;28;20042;-83
2022/01/22 10:20:25;;;;;;;32.47;20.77;;;-1.00;93.30;;;;;;5011990;28;20031;-84
2022/01/22 10:22:52;;;;;;;37.30;22.85;;;-1.00;93.50;;;;;;4997571;28;20022;-83
2022/01/22 10:25:23;;;;;;;;;;;-0.90;93.50;;;;;;4998609;28;20022;-85
2022/01/22 10:28:22;;;;;;;38.83;21.92;;;-0.90;93.60;;;;;;4997405;28;20291;-84
2022/01/22 10:30:59;;;;;;;30.98;19.23;;;-0.90;93.90;;;;;;5000900;28;20635;-84
2022/01/22 10:33:30;;;;;;;35.60;21.52;;;-0.80;94.20;;;;;;5005252;28;20046;-82
2022/01/22 10:36:19;;;;;;;39.30;23.35;;;-0.80;93.70;;;;;;5001340;28;20555;-83
2022/01/22 10:38:46;;;;;;;34.95;22.95;;;-0.80;93.20;;;;;;4988635;28;20030;-82
2022/01/22 10:41:16;;;;;;;40.20;23.92;;;-0.80;93.00;;;;;;4990088;28;20026;-84
2022/01/22 10:43:54;;;;;;;35.95;20.70;;;-0.90;93.10;;;;;;4990762;28;20023;-84
2022/01/22 10:46:34;;;;;;;29.70;19.98;;;-0.90;93.20;;;;;;4990221;28;20023;-82
2022/01/22 10:49:07;;;;;;;33.70;20.13;;;-1.00;93.10;;;;;;5003045;28;20372;-81
2022/01/22 10:51:46;;;;;;;36.15;22.15;;;-1.00;92.70;;;;;;4999015;28;20088;-81
2022/01/22 10:54:12;;;;;;;33.85;22.08;;;-1.00;93.10;;;;;;4980555;28;20026;-80
2022/01/22 10:56:41;;;;;;;30.52;20.02;;;-1.10;93.40;;;;;;4996941;28;20072;-81
2022/01/22 10:59:10;;;;;;;32.80;21.63;;;-1.10;93.80;;;;;;4964194;28;20038;-82
2022/01/22 11:01:55;;;;;;;34.92;20.98;;;-1.20;93.70;;;;;;4995787;28;20033;-82
2022/01/22 11:04:22;;;;;;;31.10;20.63;;;-1.20;93.70;;;;;;4983487;28;20168;-81
2022/01/22 11:06:50;;;;;;;30.40;18.58;;;-1.20;94.20;;;;;;4991321;28;20026;-81
2022/01/22 11:09:16;;;;;;;;;;;-1.20;94.20;;;;;;4979641;28;20037;-81
2022/01/22 11:11:42;;;;;;;34.53;20.95;;;-1.20;94.40;;;;;;4995096;28;20282;-80
2022/01/22 11:14:11;;;;;;;32.45;20.65;;;-1.20;94.20;;;;;;4994761;28;20022;-78
2022/01/22 11:16:38;;;;;;;39.92;22.45;;;-1.20;93.80;;;;;;4995710;28;20468;-83
2022/01/22 11:19:04;;;;;;;45.42;26.77;;;-1.20;93.90;;;;;;4987105;28;20026;-80
2022/01/22 11:21:31;;;;;;;40.47;22.98;;;-1.20;94.30;;;;;;5003610;28;20163;-84
2022/01/22 11:23:58;;;;;;;46.88;24.67;;;-1.20;94.40;;;;;;4997849;28;20064;-83
2022/01/22 11:26:24;;;;;;;39.50;24.52;;;-1.20;94.20;;;;;;4999640;28;20125;-84
2022/01/22 11:28:53;;;;;;;41.15;23.02;;;-1.20;94.00;;;;;;4998544;28;20029;-82
2022/01/22 11:31:22;;;;;;;50.05;25.67;;;-1.20;94.10;;;;;;4980956;28;20037;-84
2022/01/22 11:33:49;;;;;;;39.00;21.83;;;-1.20;94.20;;;;;;4965046;28;20097;-82
2022/01/22 11:36:32;;;;;;;34.80;22.95;;;-1.20;93.80;;;;;;4980260;28;20049;-84
2022/01/22 11:39:00;;;;;;;45.13;22.95;;;-1.30;94.20;;;;;;4997281;28;20031;-81
2022/01/22 11:41:27;;;;;;;37.83;23.85;;;-1.30;94.30;;;;;;4972622;28;20036;-82
2022/01/22 11:44:08;;;;;;;35.65;20.48;;;-1.40;94.30;;;;;;4998246;28;20038;-81
2022/01/22 11:46:41;;;;;;;42.47;24.92;;;-1.40;94.00;;;;;;5001035;28;20026;-80
2022/01/22 11:49:22;;;;;;;32.55;19.52;;;-1.40;94.30;;;;;;4986109;28;20558;-82
2022/01/22 11:51:51;;;;;;;35.40;20.38;;;-1.40;94.60;;;;;;4982090;28;20085;-82
2022/01/22 11:54:21;;;;;;;37.97;21.35;;;-1.40;94.80;;;;;;4984229;28;20034;-81
2022/01/22 11:56:52;;;;;;;37.47;21.85;;;-1.40;94.50;;;;;;5001383;28;20126;-81
2022/01/22 11:59:31;;;;;;;34.00;20.88;;;-1.40;94.20;;;;;;5011224;28;20026;-81
2022/01/22 12:02:03;;;;;;;33.72;20.17;;;-1.40;94.20;;;;;;5010151;28;20022;-80
2022/01/22 12:04:45;;;;;;;34.17;22.05;;;-1.50;94.20;;;;;;5002388;28;20022;-80
2022/01/22 12:07:15;;;;;;;32.40;19.08;;;-1.40;94.50;;;;;;5000535;28;20022;-80
2022/01/22 12:10:19;;;;;;;33.75;20.05;;;-1.40;94.80;;;;;;5000318;28;20033;-80
2022/01/22 12:15:15;;;;;;;33.13;17.90;;;-1.30;95.20;;;;;;4981791;28;20050;-78
2022/01/22 12:17:47;;;;;;;35.45;22.80;;;-1.30;95.00;;;;;;4980632;28;20589;-79
2022/01/22 12:23:14;;;;;;;32.58;19.80;;;-1.30;94.60;;;;;;4999456;28;20041;-81
2022/01/22 12:25:40;;;;;;;33.08;20.23;;;-1.20;94.60;;;;;;5000090;28;20023;-84
2022/01/22 12:28:07;;;;;;;29.33;19.90;;;-1.30;94.40;;;;;;5004882;28;20113;-87
2022/01/22 12:30:43;;;;;;;35.55;20.70;;;-1.30;94.50;;;;;;5005908;28;20115;-83
2022/01/22 12:33:15;;;;;;;31.35;19.33;;;-1.20;94.60;;;;;;5007901;28;20335;-82
2022/01/22 12:35:55;;;;;;;34.83;20.20;;;-1.20;94.70;;;;;;5009533;28;20035;-84
2022/01/22 12:40:59;;;;;;;33.83;18.73;;;-1.20;94.70;;;;;;4994144;28;20026;-89
2022/01/22 12:43:30;;;;;;;31.95;17.50;;;-1.20;94.80;;;;;;5012047;28;20029;-85
2022/01/22 12:46:02;;;;;;;37.65;21.02;;;-1.20;94.90;;;;;;5005342;28;20022;-83
2022/01/22 12:48:31;;;;;;;35.25;21.15;;;-1.10;94.90;;;;;;5021198;28;20033;-88
2022/01/22 12:51:01;;;;;;;33.05;20.25;;;-1.10;94.90;;;;;;5024680;28;20018;-87
2022/01/22 12:53:27;;;;;;;36.50;20.30;;;-1.20;94.60;;;;;;5027741;28;20017;-89
2022/01/22 12:58:30;;;;;;;34.60;19.85;;;-1.20;94.70;;;;;;5009731;28;20049;-89
2022/01/22 13:01:15;;;;;;;36.72;22.60;;;-1.20;94.70;;;;;;4987971;28;20039;-87
2022/01/22 13:03:45;;;;;;;35.50;19.95;;;-1.30;94.80;;;;;;5010274;28;20030;-86
2022/01/22 13:06:12;;;;;;;37.92;20.00;;;-1.30;95.00;;;;;;5001609;28;20038;-86
2022/01/22 13:08:38;;;;;;;31.80;19.92;;;-1.30;95.20;;;;;;5000871;28;20046;-85
2022/01/22 13:11:09;;;;;;;30.75;19.25;;;-1.30;95.40;;;;;;4996588;28;20125;-86
2022/01/22 13:19:56;;;;;;;34.28;19.88;;;-1.30;95.30;;;;;;5343495;22;20069;-86
2022/01/22 13:32:59;;;;;;;36.20;20.83;;;-1.30;95.10;;;;;;5037313;28;20076;-81
2022/01/22 13:35:36;;;;;;;34.65;19.95;;;-1.30;94.80;;;;;;5032174;28;20421;-80
2022/01/22 13:49:33;;;;;;;33.83;19.10;;;-1.30;95.20;;;;;;5047198;28;20151;-87
2022/01/22 13:52:03;;;;;;;38.45;20.38;;;-1.30;95.20;;;;;;5052337;28;20504;-86
2022/01/22 13:54:38;;;;;;;35.75;20.15;;;-1.30;95.10;;;;;;5053355;28;20029;-85
2022/01/22 13:57:08;;;;;;;40.03;22.75;;;-1.30;95.30;;;;;;4987776;28;20037;-84
2022/01/22 13:59:49;;;;;;;34.30;21.23;;;-1.30;95.40;;;;;;5028370;28;20028;-82
2022/01/22 14:05:00;;;;;;;36.03;21.30;;;-1.30;95.60;;;;;;5046691;28;20032;-78
2022/01/22 14:07:33;;;;;;;42.88;21.92;;;-1.30;95.60;;;;;;5051046;28;20036;-77
2022/01/22 14:09:59;;;;;;;41.08;21.90;;;-1.30;95.50;;;;;;5050953;28;20025;-77
2022/01/22 14:12:39;;;;;;;36.45;22.05;;;-1.30;95.50;;;;;;5047366;28;20029;-79
2022/01/22 14:15:11;;;;;;;34.67;22.48;;;-1.30;95.60;;;;;;5050390;28;20116;-79
2022/01/22 14:18:08;;;;;;;42.65;24.85;;;-1.30;95.80;;;;;;5050747;28;20152;-77
2022/01/22 14:20:36;;;;;;;38.42;21.83;;;-1.30;95.80;;;;;;5032490;28;20029;-79
2022/01/22 14:23:04;;;;;;;37.10;23.25;;;-1.30;95.70;;;;;;5048518;28;20032;-76
2022/01/22 14:25:31;;;;;;;31.95;22.02;;;-1.40;95.70;;;;;;5047451;28;20508;-80
2022/01/22 14:28:14;;;;;;;32.60;20.52;;;-1.30;95.70;;;;;;5051090;28;20025;-78
2022/01/22 14:30:43;;;;;;;34.30;20.95;;;-1.30;95.70;;;;;;5042138;28;20029;-76
2022/01/22 14:33:11;;;;;;;38.58;20.52;;;-1.30;95.80;;;;;;5032963;28;20045;-81
2022/01/22 14:35:41;;;;;;;30.70;18.40;;;-1.30;95.80;;;;;;5029083;28;20029;-83
2022/01/22 14:38:35;;;;;;;33.75;20.20;;;-1.30;95.90;;;;;;5032062;28;20017;-85
2022/01/22 14:44:20;;;;;;;37.45;20.98;;;-1.30;95.80;;;;;;5045303;28;20028;-81
2022/01/22 14:46:52;;;;;;;36.80;21.10;;;-1.30;95.60;;;;;;5047780;28;20037;-81
2022/01/22 14:49:26;;;;;;;39.53;23.42;;;-1.30;95.70;;;;;;5040149;28;20108;-81
2022/01/22 14:51:56;;;;;;;39.15;23.80;;;-1.30;95.80;;;;;;5029669;28;20029;-80
2022/01/22 14:54:24;;;;;;;38.15;24.77;;;-1.40;96.00;;;;;;5031264;28;20029;-78
2022/01/22 14:56:50;;;;;;;38.53;23.40;;;-1.40;95.90;;;;;;5038263;28;20107;-80
2022/01/22 14:59:16;;;;;;;42.00;25.77;;;-1.40;96.00;;;;;;5034788;28;20018;-82
2022/01/22 15:01:42;;;;;;;35.03;23.40;;;-1.40;96.20;;;;;;5046476;28;20397;-79
2022/01/22 15:04:08;;;;;;;36.42;23.25;;;-1.40;96.40;;;;;;5044868;28;20029;-84
2022/01/22 15:06:34;;;;;;;45.85;22.67;;;-1.40;96.50;;;;;;5036786;28;20022;-81
2022/01/22 15:09:05;;;;;;;37.78;23.20;;;-1.40;96.60;;;;;;5027217;28;20025;-79